createdAt,value
2022-09-26T00:01:04.922Z,99.90
2022-09-26T00:03:32.755Z,99.90
2022-09-26T00:06:24.864Z,99.90
2022-09-26T00:09:17.842Z,99.90
2022-09-26T00:12:09.971Z,99.90
2022-09-26T00:14:49.941Z,99.90
2022-09-26T00:17:29.798Z,99.90
2022-09-26T00:19:57.436Z,99.90
2022-09-26T00:22:26.259Z,99.90
2022-09-26T00:24:54.942Z,99.90
2022-09-26T00:27:47.126Z,99.90
2022-09-26T00:30:39.530Z,99.90
2022-09-26T00:33:07.633Z,99.90
2022-09-26T00:35:48.470Z,99.90
2022-09-26T00:38:29.204Z,99.90
2022-09-26T00:40:56.973Z,99.90
2022-09-26T00:43:37.892Z,99.90
2022-09-26T00:46:37.432Z,99.90
2022-09-26T00:49:17.302Z,99.90
2022-09-26T00:51:57.152Z,99.90
2022-09-26T00:54:41.410Z,99.90
2022-09-26T00:57:21.301Z,99.90
2022-09-26T01:00:13.783Z,99.90
2022-09-26T01:02:56.420Z,99.90
2022-09-26T01:05:26.176Z,99.90
2022-09-26T01:08:06.509Z,99.90
2022-09-26T01:10:50.443Z,99.90
2022-09-26T01:13:31.857Z,99.90
2022-09-26T01:16:25.407Z,99.90
2022-09-26T01:19:05.486Z,99.90
2022-09-26T01:21:54.324Z,99.90
2022-09-26T01:24:34.178Z,99.90
2022-09-26T01:27:26.275Z,99.90
2022-09-26T01:30:18.231Z,99.90
2022-09-26T01:33:10.599Z,99.90
2022-09-26T01:36:02.763Z,99.90
2022-09-26T01:38:55.727Z,99.90
2022-09-26T01:41:44.444Z,99.90
2022-09-26T01:44:36.527Z,99.90
2022-09-26T01:47:28.679Z,99.90
2022-09-26T01:50:21.616Z,99.90
2022-09-26T01:53:13.201Z,99.90
2022-09-26T01:55:55.400Z,99.90
2022-09-26T01:58:35.937Z,99.90
2022-09-26T02:01:28.135Z,99.90
2022-09-26T02:04:09.988Z,99.90
2022-09-26T02:06:50.560Z,99.90
2022-09-26T02:09:20.672Z,99.90
2022-09-26T02:12:12.808Z,99.90
2022-09-26T02:14:54.284Z,99.90
2022-09-26T02:17:23.825Z,99.90
2022-09-26T02:19:57.286Z,99.90
2022-09-26T02:22:37.219Z,99.90
2022-09-26T02:25:19.448Z,99.90
2022-09-26T02:28:11.560Z,99.90
2022-09-26T02:30:51.444Z,99.90
2022-09-26T02:33:34.521Z,99.90
2022-09-26T02:36:03.862Z,99.90
2022-09-26T02:38:43.793Z,99.90
2022-09-26T02:41:34.416Z,99.90
2022-09-26T02:44:26.536Z,99.90
2022-09-26T02:47:06.474Z,99.90
2022-09-26T02:49:46.476Z,99.90
2022-09-26T02:52:28.006Z,99.90
2022-09-26T02:55:08.762Z,99.90
2022-09-26T02:57:58.954Z,99.90
2022-09-26T03:00:51.363Z,99.90
2022-09-26T03:03:34.844Z,99.90
2022-09-26T03:06:15.998Z,99.90
2022-09-26T03:08:58.680Z,99.90
2022-09-26T03:11:50.875Z,99.90
2022-09-26T03:14:42.990Z,99.90
2022-09-26T03:17:35.156Z,99.90
2022-09-26T03:20:10.157Z,99.90
2022-09-26T03:23:04.151Z,99.90
2022-09-26T03:26:26.027Z,99.90
2022-09-26T03:29:06.058Z,99.90
2022-09-26T03:32:01.088Z,99.90
2022-09-26T03:34:38.106Z,99.90
2022-09-26T03:37:08.125Z,99.90
2022-09-26T03:42:38.891Z,99.90
2022-09-26T03:45:08.690Z,99.90
2022-09-26T03:47:37.454Z,99.90
2022-09-26T03:50:06.079Z,99.90
2022-09-26T03:52:33.913Z,99.90
2022-09-26T03:55:01.644Z,99.90
2022-09-26T03:57:29.367Z,99.90
2022-09-26T03:59:57.180Z,99.90
2022-09-26T04:02:24.950Z,99.90
2022-09-26T04:04:52.633Z,99.90
2022-09-26T04:07:20.342Z,99.90
2022-09-26T04:09:47.997Z,99.90
2022-09-26T04:12:15.691Z,99.90
2022-09-26T04:14:46.466Z,99.90
2022-09-26T04:17:14.191Z,99.90
2022-09-26T04:19:41.858Z,99.90
2022-09-26T04:22:09.534Z,99.90
2022-09-26T04:24:46.829Z,99.90
2022-09-26T04:27:17.987Z,99.90
2022-09-26T04:29:45.834Z,98.80
2022-09-26T04:32:13.502Z,99.20
2022-09-26T04:34:41.368Z,99.20
2022-09-26T04:37:10.488Z,98.60
2022-09-26T04:39:38.231Z,99.40
2022-09-26T04:42:05.957Z,99.90
2022-09-26T04:44:33.614Z,99.70
2022-09-26T04:47:01.340Z,99.90
2022-09-26T04:49:30.218Z,99.80
2022-09-26T04:51:57.790Z,98.80
2022-09-26T04:54:27.139Z,96.40
2022-09-26T04:56:54.791Z,98.40
2022-09-26T04:59:22.495Z,98.70
2022-09-26T05:01:50.263Z,97.70
2022-09-26T05:04:32.972Z,94.70
2022-09-26T05:07:00.608Z,96.00
2022-09-26T05:09:30.706Z,96.60
2022-09-26T05:12:00.631Z,96.30
2022-09-26T05:14:28.495Z,96.80
2022-09-26T05:16:56.112Z,97.30
2022-09-26T05:19:23.767Z,97.00
2022-09-26T05:21:51.582Z,97.30
2022-09-26T05:24:32.560Z,97.00
2022-09-26T05:27:00.493Z,97.90
2022-09-26T05:29:28.136Z,98.20
2022-09-26T05:31:56.068Z,95.00
2022-09-26T05:34:27.524Z,96.20
2022-09-26T05:36:57.141Z,96.40
2022-09-26T05:39:41.650Z,97.30
2022-09-26T05:42:10.414Z,97.10
2022-09-26T05:44:38.668Z,96.40
2022-09-26T05:47:06.377Z,96.70
2022-09-26T05:49:34.414Z,96.70
2022-09-26T05:52:03.691Z,95.60
2022-09-26T05:54:32.509Z,96.60
2022-09-26T05:57:00.133Z,96.90
2022-09-26T05:59:27.790Z,96.20
2022-09-26T06:01:56.276Z,97.10
2022-09-26T06:04:24.022Z,96.00
2022-09-26T06:07:02.219Z,97.80
2022-09-26T06:09:47.628Z,96.00
2022-09-26T06:12:27.177Z,94.70
2022-09-26T06:14:56.896Z,95.60
2022-09-26T06:17:25.237Z,93.50
2022-09-26T06:20:06.240Z,95.10
2022-09-26T06:22:41.220Z,94.70
2022-09-26T06:25:12.836Z,94.80
2022-09-26T06:27:40.841Z,95.20
2022-09-26T06:30:09.298Z,94.10
2022-09-26T06:32:39.503Z,95.70
2022-09-26T06:35:07.490Z,95.00
2022-09-26T06:37:35.215Z,93.30
2022-09-26T06:40:02.975Z,94.60
2022-09-26T06:42:38.419Z,96.10
2022-09-26T06:45:09.921Z,95.20
2022-09-26T06:47:37.682Z,94.80
2022-09-26T06:50:05.672Z,92.50
2022-09-26T06:52:35.147Z,93.50
2022-09-26T06:55:03.963Z,95.10
2022-09-26T06:57:42.037Z,92.70
2022-09-26T07:00:14.774Z,94.30
2022-09-26T07:02:54.864Z,93.60
2022-09-26T07:05:23.372Z,93.10
2022-09-26T07:07:51.238Z,93.30
2022-09-26T07:10:19.262Z,93.50
2022-09-26T07:12:47.528Z,93.90
2022-09-26T07:15:16.775Z,94.30
2022-09-26T07:17:45.502Z,94.40
2022-09-26T07:20:16.984Z,94.60
2022-09-26T07:22:44.663Z,94.50
2022-09-26T07:25:12.705Z,90.70
2022-09-26T07:27:40.848Z,92.30
2022-09-26T07:30:09.526Z,92.20
2022-09-26T07:32:37.283Z,94.00
2022-09-26T07:35:06.555Z,94.30
2022-09-26T07:37:34.234Z,93.90
2022-09-26T07:40:06.295Z,91.40
2022-09-26T07:42:34.007Z,93.30
2022-09-26T07:45:22.313Z,94.00
2022-09-26T07:48:01.848Z,95.00
2022-09-26T07:50:29.486Z,94.50
2022-09-26T07:52:57.095Z,94.10
2022-09-26T07:55:28.451Z,93.40
2022-09-26T07:57:56.708Z,94.20
2022-09-26T08:00:25.105Z,93.80
2022-09-26T08:02:53.138Z,93.30
2022-09-26T08:05:20.840Z,94.40
2022-09-26T08:07:49.226Z,93.20
2022-09-26T08:10:20.370Z,94.70
2022-09-26T08:12:49.369Z,94.30
2022-09-26T08:15:17.235Z,93.30
2022-09-26T08:17:44.991Z,92.40
2022-09-26T08:20:13.124Z,92.70
2022-09-26T08:22:41.123Z,93.00
2022-09-26T08:25:09.207Z,94.20
2022-09-26T08:27:36.912Z,95.00
2022-09-26T08:30:04.832Z,95.00
2022-09-26T08:32:33.179Z,93.90
2022-09-26T08:35:01.153Z,92.90
2022-09-26T08:37:29.238Z,94.70
2022-09-26T08:39:56.904Z,94.90
2022-09-26T08:42:36.895Z,95.40
2022-09-26T08:45:33.317Z,95.30
2022-09-26T08:48:05.275Z,94.30
2022-09-26T08:50:47.047Z,94.50
2022-09-26T08:53:34.283Z,94.90
2022-09-26T08:56:05.335Z,95.20
2022-09-26T08:58:41.116Z,95.70
2022-09-26T09:01:13.523Z,96.20
2022-09-26T09:03:52.165Z,96.40
2022-09-26T09:06:19.929Z,96.80
2022-09-26T09:08:53.029Z,96.60
2022-09-26T09:11:40.267Z,97.00
2022-09-26T09:14:24.996Z,97.00
2022-09-26T09:17:15.137Z,97.20
2022-09-26T09:19:55.035Z,97.30
2022-09-26T09:22:39.063Z,97.50
2022-09-26T09:25:18.997Z,97.60
2022-09-26T09:27:54.890Z,97.80
2022-09-26T09:30:30.486Z,98.00
2022-09-26T09:33:02.241Z,98.20
2022-09-26T09:35:42.274Z,98.80
2022-09-26T09:38:13.438Z,98.50
2022-09-26T09:40:43.568Z,98.70
2022-09-26T09:43:27.365Z,98.80
2022-09-26T09:45:58.370Z,98.90
2022-09-26T09:48:27.949Z,98.80
2022-09-26T09:51:15.501Z,98.70
2022-09-26T09:53:53.454Z,98.60
2022-09-26T09:56:41.453Z,98.70
2022-09-26T09:59:21.416Z,98.70
2022-09-26T10:01:54.162Z,98.70
2022-09-26T10:04:35.370Z,98.90
2022-09-26T10:07:04.373Z,99.20
2022-09-26T10:09:42.444Z,99.30
2022-09-26T10:12:15.736Z,99.50
2022-09-26T10:14:55.592Z,99.70
2022-09-26T10:17:24.058Z,99.60
2022-09-26T10:19:52.880Z,99.90
2022-09-26T10:22:26.479Z,99.90
2022-09-26T10:25:00.606Z,99.90
2022-09-26T10:27:47.863Z,99.90
2022-09-26T10:30:26.175Z,99.90
2022-09-26T10:32:57.409Z,99.90
2022-09-26T10:35:30.978Z,99.90
2022-09-26T10:38:18.947Z,99.90
2022-09-26T10:40:59.751Z,99.90
2022-09-26T10:43:38.395Z,99.90
2022-09-26T10:49:03.288Z,99.90
2022-09-26T10:51:43.243Z,99.90
2022-09-26T10:54:13.831Z,99.90
2022-09-26T10:59:37.830Z,99.90
2022-09-26T11:02:05.777Z,99.90
2022-09-26T11:04:47.744Z,99.90
2022-09-26T11:07:28.198Z,99.90
2022-09-26T11:10:00.348Z,99.90
2022-09-26T11:12:30.411Z,99.90
2022-09-26T11:15:05.479Z,99.90
2022-09-26T11:17:45.431Z,99.90
2022-09-26T11:20:17.976Z,99.90
2022-09-26T11:22:50.008Z,99.90
2022-09-26T11:25:40.154Z,99.90
2022-09-26T11:28:13.384Z,99.90
2022-09-26T11:30:49.750Z,99.90
2022-09-26T11:33:20.539Z,99.90
2022-09-26T11:36:00.424Z,99.90
2022-09-26T11:38:39.482Z,99.90
2022-09-26T11:41:36.786Z,99.90
2022-09-26T11:44:27.039Z,99.90
2022-09-26T11:47:14.337Z,99.90
2022-09-26T11:50:01.881Z,99.90
2022-09-26T11:52:44.388Z,99.90
2022-09-26T11:55:24.867Z,99.90
2022-09-26T11:58:03.470Z,99.90
2022-09-26T12:00:44.746Z,99.90
2022-09-26T12:03:33.692Z,99.90
2022-09-26T12:06:13.799Z,99.90
2022-09-26T12:08:53.861Z,99.90
2022-09-26T12:11:42.882Z,99.90
2022-09-26T12:14:23.950Z,99.90
2022-09-26T12:16:58.854Z,99.90
2022-09-26T12:19:32.962Z,99.90
2022-09-26T12:22:25.080Z,99.90
2022-09-26T12:25:06.532Z,99.90
2022-09-26T12:27:38.300Z,99.90
2022-09-26T12:30:29.421Z,99.90
2022-09-26T12:33:09.330Z,99.90
2022-09-26T12:35:45.359Z,99.90
2022-09-26T12:38:33.221Z,99.90
2022-09-26T12:41:14.730Z,99.90
2022-09-26T12:43:57.563Z,99.90
2022-09-26T12:46:37.614Z,99.90
2022-09-26T12:49:25.732Z,99.90
2022-09-26T12:51:57.025Z,99.90
2022-09-26T12:54:37.536Z,99.90
2022-09-26T12:57:18.213Z,99.90
2022-09-26T12:59:58.539Z,99.90
2022-09-26T13:02:39.946Z,99.90
2022-09-26T13:05:28.167Z,99.90
2022-09-26T13:08:11.101Z,99.90
2022-09-26T13:11:01.319Z,99.90
2022-09-26T13:13:41.199Z,99.90
2022-09-26T13:16:28.747Z,99.90
2022-09-26T13:19:02.034Z,99.90
2022-09-26T13:21:43.260Z,99.90
2022-09-26T13:24:19.311Z,99.90
2022-09-26T13:26:52.662Z,99.90
2022-09-26T13:29:33.988Z,99.90
2022-09-26T13:32:16.230Z,99.90
2022-09-26T13:34:50.848Z,99.90
2022-09-26T13:37:29.247Z,99.90
2022-09-26T13:40:04.821Z,99.90
2022-09-26T13:42:37.163Z,99.90
2022-09-26T13:45:17.018Z,99.90
2022-09-26T13:47:55.443Z,99.90
2022-09-26T13:50:36.251Z,99.90
2022-09-26T13:53:13.720Z,99.90
2022-09-26T13:55:43.604Z,99.90
2022-09-26T13:58:22.043Z,99.90
2022-09-26T14:00:53.550Z,99.90
2022-09-26T14:03:37.440Z,99.90
2022-09-26T14:06:12.620Z,99.90
2022-09-26T14:09:10.882Z,99.90
2022-09-26T14:11:52.944Z,99.90
2022-09-26T14:14:24.352Z,99.90
2022-09-26T14:16:57.146Z,99.90
2022-09-26T14:19:45.228Z,99.90
2022-09-26T14:22:32.541Z,99.90
2022-09-26T14:25:00.252Z,99.90
2022-09-26T14:27:41.968Z,99.90
2022-09-26T14:30:22.920Z,99.90
2022-09-26T14:32:52.111Z,99.90
2022-09-26T14:35:26.515Z,99.90
2022-09-26T14:38:02.616Z,99.90
2022-09-26T14:40:38.301Z,99.90
2022-09-26T14:43:16.196Z,99.90
2022-09-26T14:45:52.600Z,99.90
2022-09-26T14:48:40.351Z,99.90
2022-09-26T14:51:26.748Z,99.90
2022-09-26T14:54:00.790Z,99.90
2022-09-26T14:56:38.754Z,99.90
2022-09-26T14:59:26.894Z,99.90
2022-09-26T15:02:15.585Z,99.90
2022-09-26T15:04:44.381Z,99.90
2022-09-26T15:07:15.573Z,99.90
2022-09-26T15:09:45.003Z,99.90
2022-09-26T15:12:23.479Z,99.90
2022-09-26T15:14:54.396Z,99.90
2022-09-26T15:17:28.289Z,99.90
2022-09-26T15:19:59.212Z,99.90
2022-09-26T15:22:30.324Z,99.90
2022-09-26T15:25:17.640Z,99.90
2022-09-26T15:27:46.554Z,99.90
2022-09-26T15:30:19.929Z,99.90
2022-09-26T15:32:50.799Z,99.90
2022-09-26T15:35:19.506Z,99.90
2022-09-26T15:37:47.627Z,99.90
2022-09-26T15:40:26.723Z,99.90
2022-09-26T15:43:14.118Z,99.90
2022-09-26T15:46:08.874Z,99.90
2022-09-26T15:48:44.032Z,99.90
2022-09-26T15:51:16.585Z,99.90
2022-09-26T15:53:48.789Z,99.90
2022-09-26T15:56:22.907Z,99.90
2022-09-26T15:58:59.348Z,99.90
2022-09-26T16:01:29.306Z,99.90
2022-09-26T16:03:59.918Z,99.90
2022-09-26T16:06:38.166Z,99.90
2022-09-26T16:09:08.663Z,99.90
2022-09-26T16:11:48.416Z,99.90
2022-09-26T16:14:26.906Z,99.90
2022-09-26T16:17:00.648Z,99.90
2022-09-26T16:19:36.108Z,99.90
2022-09-26T16:22:23.456Z,99.90
2022-09-26T16:24:51.944Z,99.90
2022-09-26T16:27:27.313Z,99.90
2022-09-26T16:30:04.686Z,99.90
2022-09-26T16:32:33.468Z,99.90
2022-09-26T16:35:12.104Z,99.90
2022-09-26T16:37:39.855Z,99.90
2022-09-26T16:40:18.723Z,99.90
2022-09-26T16:42:47.549Z,99.90
2022-09-26T16:45:15.549Z,99.90
2022-09-26T16:47:44.756Z,99.90
2022-09-26T16:50:26.805Z,99.90
2022-09-26T16:52:55.390Z,99.90
2022-09-26T16:55:28.055Z,99.90
2022-09-26T16:57:57.349Z,99.90
2022-09-26T17:00:38.525Z,99.90
2022-09-26T17:03:18.830Z,99.90
2022-09-26T17:05:47.335Z,99.90
2022-09-26T17:08:15.257Z,99.90
2022-09-26T17:10:44.569Z,99.90
2022-09-26T17:13:14.883Z,99.90
2022-09-26T17:15:44.049Z,99.90
2022-09-26T17:18:13.395Z,99.90
2022-09-26T17:20:44.531Z,99.90
2022-09-26T17:23:35.264Z,99.90
2022-09-26T17:26:02.175Z,99.90
2022-09-26T17:28:48.392Z,99.90
2022-09-26T17:31:20.208Z,99.90
2022-09-26T17:33:50.038Z,99.90
2022-09-26T17:36:20.341Z,99.90
2022-09-26T17:38:48.260Z,99.90
2022-09-26T17:41:16.158Z,99.90
2022-09-26T17:43:43.938Z,99.90
2022-09-26T17:46:15.200Z,99.90
2022-09-26T17:48:44.138Z,99.90
2022-09-26T17:51:15.990Z,99.90
2022-09-26T17:53:50.501Z,99.90
2022-09-26T17:56:19.538Z,99.90
2022-09-26T17:58:47.900Z,99.90
2022-09-26T18:01:28.495Z,99.90
2022-09-26T18:03:58.725Z,99.90
2022-09-26T18:06:29.374Z,99.90
2022-09-26T18:08:58.630Z,99.90
2022-09-26T18:11:27.780Z,99.90
2022-09-26T18:13:55.796Z,99.90
2022-09-26T18:16:24.680Z,99.90
2022-09-26T18:18:52.594Z,99.90
2022-09-26T18:21:20.321Z,99.90
2022-09-26T18:23:52.766Z,99.90
2022-09-26T18:26:32.277Z,99.90
2022-09-26T18:29:07.865Z,99.90
2022-09-26T18:31:39.428Z,99.90
2022-09-26T18:34:11.769Z,99.90
2022-09-26T18:36:41.083Z,99.90
2022-09-26T18:39:08.793Z,99.90
2022-09-26T18:41:36.781Z,99.90
2022-09-26T18:44:04.954Z,99.90
2022-09-26T18:46:34.387Z,99.90
2022-09-26T18:49:06.563Z,99.90
2022-09-26T18:51:35.301Z,99.90
2022-09-26T18:54:07.260Z,99.90
2022-09-26T18:56:50.635Z,99.90
2022-09-26T18:59:18.341Z,99.90
2022-09-26T19:01:46.966Z,99.90
2022-09-26T19:04:20.251Z,99.90
2022-09-26T19:06:49.791Z,99.90
2022-09-26T19:09:19.099Z,99.90
2022-09-26T19:11:51.132Z,99.90
2022-09-26T19:14:20.577Z,99.90
2022-09-26T19:16:49.497Z,99.90
2022-09-26T19:19:17.674Z,99.90
2022-09-26T19:21:56.478Z,99.90
2022-09-26T19:24:32.049Z,99.90
2022-09-26T19:27:05.983Z,99.90
2022-09-26T19:29:46.278Z,99.90
2022-09-26T19:32:34.366Z,99.90
2022-09-26T19:35:06.649Z,99.90
2022-09-26T19:37:34.951Z,99.90
2022-09-26T19:40:04.333Z,99.90
2022-09-26T19:42:32.824Z,99.90
2022-09-26T19:45:00.527Z,99.90
2022-09-26T19:47:35.440Z,99.90
2022-09-26T19:50:03.292Z,99.90
2022-09-26T19:52:32.146Z,99.90
2022-09-26T19:54:59.774Z,99.90
2022-09-26T19:57:27.742Z,99.90
2022-09-26T19:59:55.413Z,99.90
2022-09-26T20:02:29.912Z,99.90
2022-09-26T20:04:57.666Z,99.90
2022-09-26T20:07:25.640Z,99.90
2022-09-26T20:09:54.135Z,99.90
2022-09-26T20:12:22.352Z,99.90
2022-09-26T20:14:50.406Z,99.90
2022-09-26T20:17:22.444Z,99.90
2022-09-26T20:19:54.021Z,99.90
2022-09-26T20:22:24.806Z,99.90
2022-09-26T20:24:54.042Z,99.90
2022-09-26T20:27:25.213Z,99.90
2022-09-26T20:30:05.640Z,99.90
2022-09-26T20:32:33.930Z,99.90
2022-09-26T20:35:02.528Z,99.90
2022-09-26T20:37:33.322Z,99.90
2022-09-26T20:40:01.618Z,99.90
2022-09-26T20:42:32.769Z,99.90
2022-09-26T20:45:00.489Z,99.90
2022-09-26T20:47:28.219Z,99.90
2022-09-26T20:49:57.183Z,99.90
2022-09-26T20:52:30.389Z,99.90
2022-09-26T20:54:58.116Z,99.90
2022-09-26T20:57:26.778Z,99.90
2022-09-26T20:59:54.454Z,99.90
2022-09-26T21:02:28.002Z,99.90
2022-09-26T21:04:56.370Z,99.90
2022-09-26T21:07:24.643Z,99.90
2022-09-26T21:09:52.604Z,99.90
2022-09-26T21:12:20.356Z,99.90
2022-09-26T21:14:48.120Z,99.90
2022-09-26T21:17:21.365Z,99.90
2022-09-26T21:19:50.046Z,99.90
2022-09-26T21:22:18.862Z,99.90
2022-09-26T21:24:49.517Z,99.90
2022-09-26T21:27:17.244Z,99.90
2022-09-26T21:29:44.990Z,99.90
2022-09-26T21:32:20.818Z,99.90
2022-09-26T21:35:07.027Z,99.90
2022-09-26T21:37:35.144Z,99.90
2022-09-26T21:40:03.082Z,99.90
2022-09-26T21:42:30.848Z,99.90
2022-09-26T21:45:01.377Z,99.90
2022-09-26T21:47:29.057Z,99.90
2022-09-26T21:49:57.788Z,99.90
2022-09-26T21:52:50.191Z,99.90
2022-09-26T21:55:21.315Z,99.90
2022-09-26T21:57:50.561Z,99.90
2022-09-26T22:00:19.088Z,99.90
2022-09-26T22:02:47.742Z,99.90
2022-09-26T22:05:17.091Z,99.90
2022-09-26T22:07:45.015Z,99.90
2022-09-26T22:10:13.605Z,99.90
2022-09-26T22:12:42.430Z,99.90
2022-09-26T22:15:10.593Z,99.90
2022-09-26T22:17:38.272Z,99.90
2022-09-26T22:20:06.169Z,99.90
2022-09-26T22:22:34.684Z,99.90
2022-09-26T22:25:05.404Z,99.90
2022-09-26T22:27:33.926Z,99.90
2022-09-26T22:30:01.637Z,99.90
2022-09-26T22:32:29.313Z,99.90
2022-09-26T22:34:57.938Z,99.90
2022-09-26T22:37:25.708Z,99.90
2022-09-26T22:39:53.896Z,99.90
2022-09-26T22:42:21.948Z,99.90
2022-09-26T22:44:49.612Z,99.90
2022-09-26T22:47:17.277Z,99.90
2022-09-26T22:49:44.913Z,99.90
2022-09-26T22:52:13.366Z,99.90
2022-09-26T22:54:41.038Z,99.90
2022-09-26T22:57:08.855Z,99.90
2022-09-26T22:59:36.640Z,99.90
2022-09-26T23:02:04.821Z,99.90
2022-09-26T23:04:46.801Z,99.90
2022-09-26T23:07:15.855Z,99.90
2022-09-26T23:09:44.588Z,99.90
2022-09-26T23:12:12.360Z,99.90
2022-09-26T23:14:40.010Z,99.90
2022-09-26T23:17:09.233Z,99.90
2022-09-26T23:19:37.691Z,99.90
2022-09-26T23:22:05.320Z,99.90
2022-09-26T23:24:33.019Z,99.90
2022-09-26T23:27:00.833Z,99.90
2022-09-26T23:29:28.533Z,99.90
2022-09-26T23:31:56.996Z,99.90
2022-09-26T23:34:24.994Z,99.90
2022-09-26T23:36:52.667Z,99.90
2022-09-26T23:39:20.348Z,99.90
2022-09-26T23:41:48.040Z,99.90
2022-09-26T23:44:15.706Z,99.90
2022-09-26T23:46:43.845Z,99.90
2022-09-26T23:49:11.558Z,99.90
2022-09-26T23:51:39.271Z,99.90
2022-09-26T23:54:07.193Z,99.90
2022-09-26T23:56:34.941Z,99.90
2022-09-26T23:59:02.675Z,99.90
